Accueil
METAR-TAF:

METAR-TAF

Aéroports :

Farmville Regional Airport

Farmville, Virginie, États-Unis

latitude: 37-21N, longitude: 078-26W, altitude: 125 m

Observation

Le bulletin a été fait il y a 32 minutes, à 07:15 UTC
Vent 3 kt de sud-ouest
Température 21°C
Humidité 83%
Pression 1012 hPa
Visibilité: 16.1 km
Ciel clair

METAR: KFVX 030715Z AUTO 22003KT 10SM CLR 21/18 A2989 RMK AO2 T02110176

Heure: 03:47 (07:47 UTC)


TAF: absent

Observations et prévisions météorologiques de plus de 4000 aéroports (messages METAR et TAF).

Les stations disponibles sont représentées par des disques jaunes et rouges sur la carte.

Passer la souris dessus pour voir le nom de la station.

Cliquer dessus pour voir les observations et prévisions météorologiques.

Pour changer de carte: cliquez sur les boutons verts avec une croix noire pour zoomer, sur le bouton vert avec un tiret pour effectuer un zoom arrière, ou sur les flèches vertes pour les cartes adjacentes.


METAR-TAF: